Time;durP1;ratioP1;P1;durP2;ratioP2;P2;SDS_P1;SDS_P2;PMS_P1;PMS_P2;Temp;Humidity;BMP_temperature;BMP_pressure;BME280_temperature;BME280_humidity;BME280_pressure;Samples;Min_cycle;Max_cycle;Signal;HPM_P1;HPM_P2
2024/02/07 00:07:04;;;;;;;3.70;1.80;;;;;;;7.30;100.00;97721.09;436499;1260;139122;-65
2024/02/07 00:17:10;;;;;;;2.80;1.70;;;;;;;7.23;100.00;97706.85;436858;1259;139114;-65
2024/02/07 00:27:17;;;;;;;1.70;1.50;;;;;;;7.20;100.00;97687.16;441552;1260;139319;-65
2024/02/07 00:37:23;;;;;;;2.10;1.10;;;;;;;7.13;100.00;97682.63;439689;1260;139437;-52
2024/02/07 00:47:31;;;;;;;2.10;1.90;;;;;;;7.03;100.00;97674.87;437686;1260;140046;-52
2024/02/07 00:57:39;;;;;;;1.90;1.30;;;;;;;6.90;100.00;97664.43;437857;1260;139933;-57
2024/02/07 01:07:43;;;;;;;;;;;;;;;6.84;100.00;97655.19;434716;1264;139774;-57
2024/02/07 01:17:49;;;;;;;3.60;1.70;;;;;;;6.81;100.00;97642.86;439285;1261;125764;-56
2024/02/07 01:27:55;;;;;;;2.50;1.50;;;;;;;6.80;100.00;97623.16;434162;1263;140992;-57
2024/02/07 01:38:07;;;;;;;3.30;1.70;;;;;;;6.80;100.00;97604.00;437338;1263;139240;-57
2024/02/07 01:48:14;;;;;;;4.10;1.80;;;;;;;6.81;100.00;97588.40;444522;1260;139539;-58
2024/02/07 01:58:20;;;;;;;2.70;1.70;;;;;;;6.88;100.00;97581.66;447011;1260;139574;-56
2024/02/07 02:08:28;;;;;;;3.30;1.70;;;;;;;6.96;100.00;97570.21;440744;1260;140064;-56
2024/02/07 02:18:35;;;;;;;2.90;1.60;;;;;;;7.08;100.00;97560.84;436203;1260;139699;-58
2024/02/07 02:28:54;;;;;;;2.80;1.50;;;;;;;7.15;100.00;97552.30;437611;1260;139333;-56
2024/02/07 02:39:01;;;;;;;2.40;1.20;;;;;;;7.21;100.00;97542.45;437454;1259;139905;-57
2024/02/07 02:49:11;;;;;;;3.80;1.50;;;;;;;7.26;100.00;97525.99;449503;1259;139166;-53
2024/02/07 02:59:18;;;;;;;4.40;1.60;;;;;;;7.31;100.00;97519.49;437425;1263;139327;-52
2024/02/07 03:09:26;;;;;;;2.20;1.40;;;;;;;7.36;100.00;97511.62;434872;1263;139677;-53
2024/02/07 03:19:32;;;;;;;2.90;1.40;;;;;;;7.32;100.00;97496.77;439043;1260;138815;-52
2024/02/07 03:29:39;;;;;;;2.20;1.00;;;;;;;7.37;100.00;97485.44;434731;1263;139080;-50
2024/02/07 03:39:45;;;;;;;3.50;1.40;;;;;;;7.41;100.00;97475.84;434235;1260;139267;-57
2024/02/07 03:49:51;;;;;;;1.80;1.20;;;;;;;7.42;100.00;97461.09;438867;1259;139597;-57
2024/02/07 03:59:57;;;;;;;2.20;0.90;;;;;;;7.37;100.00;97450.59;435057;1260;140001;-65
2024/02/07 04:10:04;;;;;;;2.60;0.90;;;;;;;7.26;100.00;97442.94;435759;1261;139292;-63
2024/02/07 05:22:41;;;;;;;2.60;1.30;;;;;;;6.47;100.00;97388.45;436284;1259;139602;-56
2024/02/07 05:32:48;;;;;;;2.60;1.50;;;;;;;6.48;100.00;97389.11;439674;1263;140069;-57
2024/02/07 05:42:55;;;;;;;2.40;1.90;;;;;;;6.52;100.00;97388.55;435777;1263;139144;-57
2024/02/07 05:53:00;;;;;;;2.60;1.80;;;;;;;6.56;100.00;97389.92;437538;1262;139451;-56
2024/02/07 06:03:08;;;;;;;2.20;1.70;;;;;;;6.55;100.00;97394.91;435513;1262;139692;-57
2024/02/07 06:13:14;;;;;;;1.90;1.10;;;;;;;6.47;100.00;97433.66;439634;1259;139909;-56
2024/02/07 06:23:21;;;;;;;1.00;0.60;;;;;;;6.27;100.00;97476.29;439172;1259;139689;-56
2024/02/07 06:33:26;;;;;;;0.90;0.80;;;;;;;5.71;100.00;97493.40;437385;1261;139682;-57
2024/02/07 06:43:33;;;;;;;2.10;1.10;;;;;;;5.30;100.00;97510.98;435037;1261;5104332;-58
2024/02/07 06:53:39;;;;;;;1.00;0.90;;;;;;;4.94;100.00;97532.55;436096;1263;139678;-66
2024/02/07 07:03:50;;;;;;;0.90;0.60;;;;;;;4.52;100.00;97556.86;434421;1262;141096;-63
2024/02/07 07:13:57;;;;;;;0.90;0.70;;;;;;;4.01;100.00;97575.47;434736;1260;139764;-60
2024/02/07 07:24:09;;;;;;;1.40;1.00;;;;;;;3.60;100.00;97588.77;435563;1260;140264;-66
2024/02/07 07:34:13;;;;;;;;;;;;;;;3.35;100.00;97592.55;438358;1263;139481;-64
2024/02/07 07:44:19;;;;;;;0.50;0.20;;;;;;;3.11;100.00;97598.78;438341;1263;126028;-64
2024/02/07 07:54:25;;;;;;;1.10;0.30;;;;;;;2.91;100.00;97608.15;441064;1258;139483;-65
2024/02/07 08:04:31;;;;;;;1.80;0.50;;;;;;;2.78;100.00;97614.17;437606;1259;139406;-68
2024/02/07 08:14:38;;;;;;;1.50;0.90;;;;;;;2.69;100.00;97620.29;440580;1260;141217;-66
2024/02/07 08:24:44;;;;;;;0.70;0.70;;;;;;;2.64;100.00;97631.10;435267;1259;139142;-69
2024/02/07 08:34:50;;;;;;;0.90;0.60;;;;;;;2.65;100.00;97630.55;435222;1263;139727;-64
2024/02/07 08:44:56;;;;;;;3.40;0.60;;;;;;;2.64;100.00;97635.78;435176;1262;139836;-65
2024/02/07 08:55:02;;;;;;;3.70;1.20;;;;;;;2.70;100.00;97639.36;435467;1263;139500;-58
2024/02/07 09:05:09;;;;;;;1.60;0.40;;;;;;;2.72;100.00;97631.52;436656;1260;139522;-70
2024/02/07 09:15:15;;;;;;;1.50;1.20;;;;;;;2.70;100.00;97642.31;437227;1262;139601;-64
2024/02/07 09:25:21;;;;;;;2.00;1.30;;;;;;;2.73;100.00;97655.98;437093;1259;139090;-65
2024/02/07 09:35:27;;;;;;;4.70;1.30;;;;;;;2.66;100.00;97660.33;434685;1262;139152;-66
2024/02/07 09:45:35;;;;;;;1.80;0.90;;;;;;;2.58;100.00;97662.23;435304;1259;139352;-66
2024/02/07 09:55:41;;;;;;;0.80;0.70;;;;;;;2.52;100.00;97662.45;435480;1259;139742;-65
2024/02/07 10:06:00;;;;;;;3.40;1.90;;;;;;;2.47;100.00;97664.16;435735;1260;139621;-60
2024/02/07 10:16:09;;;;;;;1.30;1.20;;;;;;;2.41;100.00;97662.61;436001;1259;140647;-65
2024/02/07 10:26:23;;;;;;;1.70;1.10;;;;;;;2.45;100.00;97674.44;437272;1262;138739;-59
2024/02/07 10:36:29;;;;;;;2.90;1.20;;;;;;;2.47;100.00;97686.42;433236;1259;139732;-62
2024/02/07 10:46:35;;;;;;;6.10;2.70;;;;;;;2.52;100.00;97666.09;434501;1263;139943;-69
2024/02/07 10:56:42;;;;;;;2.30;1.50;;;;;;;2.65;100.00;97661.46;437054;1262;139489;-64
2024/02/07 11:06:50;;;;;;;2.10;2.00;;;;;;;2.95;100.00;97673.25;445112;1259;139742;-62
2024/02/07 11:16:56;;;;;;;2.70;2.50;;;;;;;3.14;100.00;97676.23;437433;1262;139366;-62
2024/02/07 11:27:03;;;;;;;2.80;2.20;;;;;;;3.21;100.00;97690.60;435272;1259;140039;-67
2024/02/07 11:37:10;;;;;;;3.80;3.30;;;;;;;3.16;100.00;97694.56;436718;1263;140088;-68
2024/02/07 11:47:26;;;;;;;6.50;3.60;;;;;;;3.15;100.00;97677.69;436199;1263;140254;-73
2024/02/07 11:57:34;;;;;;;7.80;5.80;;;;;;;3.24;100.00;97673.38;434781;1261;140372;-52
2024/02/07 12:07:41;;;;;;;4.20;3.70;;;;;;;3.28;100.00;97675.88;440192;1258;139113;-52
2024/02/07 12:17:47;;;;;;;5.90;5.10;;;;;;;3.28;100.00;97680.15;436120;1262;139232;-50
2024/02/07 12:27:54;;;;;;;6.30;4.20;;;;;;;3.21;100.00;97688.39;449241;1259;140666;-59
2024/02/07 12:38:01;;;;;;;7.30;3.60;;;;;;;3.23;100.00;97700.58;436329;1259;139980;-60
2024/02/07 12:48:10;;;;;;;7.80;3.90;;;;;;;3.20;100.00;97698.96;434175;1264;140013;-60
2024/02/07 12:58:17;;;;;;;5.60;3.70;;;;;;;3.19;100.00;97708.20;436459;1263;139699;-60
2024/02/07 13:08:23;;;;;;;4.40;3.20;;;;;;;3.22;100.00;97707.70;449483;1261;139143;-60
2024/02/07 13:18:29;;;;;;;6.20;2.90;;;;;;;3.27;100.00;97706.84;440834;1260;139114;-48
2024/02/07 13:28:39;;;;;;;3.70;2.70;;;;;;;3.36;100.00;97715.44;434162;1263;140046;-49
2024/02/07 13:38:46;;;;;;;3.00;2.50;;;;;;;3.18;100.00;97724.71;434441;1262;140206;-61
2024/02/07 13:48:54;;;;;;;2.40;2.20;;;;;;;3.07;100.00;97734.55;436236;1263;139140;-60
2024/02/07 13:59:00;;;;;;;3.30;2.20;;;;;;;3.00;100.00;97744.00;438899;1260;140450;-59
2024/02/07 14:09:07;;;;;;;4.40;2.90;;;;;;;2.92;100.00;97743.30;438012;1260;139871;-65
2024/02/07 14:19:12;;;;;;;;;;;;;;;2.85;100.00;97743.35;435369;1262;139522;-67
2024/02/07 14:29:18;;;;;;;4.90;3.00;;;;;;;2.87;100.00;97739.98;440175;1262;127202;-60
2024/02/07 14:39:28;;;;;;;4.60;3.70;;;;;;;2.90;100.00;97753.77;434526;1263;139951;-63
2024/02/07 14:49:34;;;;;;;3.80;3.50;;;;;;;2.94;100.00;97757.33;434756;1263;138848;-57
2024/02/07 14:59:41;;;;;;;3.40;2.90;;;;;;;2.94;100.00;97760.95;434426;1262;139330;-64
2024/02/07 15:09:46;;;;;;;;;;;;;;;2.94;100.00;97766.33;439847;1259;139750;-71
2024/02/07 15:19:52;;;;;;;4.50;3.40;;;;;;;2.86;100.00;97777.88;436330;1263;126768;-72
2024/02/07 15:29:59;;;;;;;5.10;4.00;;;;;;;2.80;100.00;97777.55;434531;1264;139054;-60
2024/02/07 15:40:06;;;;;;;4.90;3.50;;;;;;;2.73;100.00;97773.80;434252;1265;139748;-59
2024/02/07 15:50:13;;;;;;;6.10;3.20;;;;;;;2.68;100.00;97790.21;446096;1263;138562;-59
2024/02/07 16:00:21;;;;;;;6.10;2.60;;;;;;;2.63;100.00;97811.71;436030;1263;140540;-58
2024/02/07 16:10:27;;;;;;;8.50;3.00;;;;;;;2.46;100.00;97846.91;449064;1261;140401;-58
2024/02/07 16:20:33;;;;;;;3.70;2.40;;;;;;;2.34;100.00;97865.41;439445;1263;139409;-59
2024/02/07 16:30:40;;;;;;;4.50;2.40;;;;;;;2.20;100.00;97880.17;435191;1263;140542;-59
2024/02/07 16:40:46;;;;;;;2.60;2.10;;;;;;;2.04;100.00;97899.71;434251;1262;139588;-58
2024/02/07 16:50:52;;;;;;;6.60;3.20;;;;;;;1.86;100.00;97909.85;438750;1262;140373;-58
2024/02/07 17:00:59;;;;;;;3.90;2.00;;;;;;;1.74;100.00;97915.86;435142;1262;138604;-58
2024/02/07 17:11:05;;;;;;;3.50;1.50;;;;;;;1.64;100.00;97916.02;434434;1265;139085;-60
2024/02/07 17:21:11;;;;;;;3.70;2.00;;;;;;;1.55;100.00;97930.66;434476;1263;139159;-60
2024/02/07 17:31:18;;;;;;;4.80;2.40;;;;;;;1.49;100.00;97940.32;441877;1263;139673;-63
2024/02/07 17:41:24;;;;;;;8.50;3.30;;;;;;;1.46;100.00;97949.09;441848;1261;139707;-62
2024/02/07 17:51:30;;;;;;;8.60;2.50;;;;;;;1.46;100.00;97959.80;435152;1263;139590;-71
2024/02/07 18:01:37;;;;;;;6.60;2.90;;;;;;;1.55;100.00;97978.45;435012;1263;139541;-65
2024/02/07 18:11:43;;;;;;;3.90;2.80;;;;;;;1.59;100.00;97984.98;434698;1263;140318;-61
2024/02/07 19:19:41;;;;;;;8.70;4.90;;;;;;;1.20;100.00;98036.63;445066;1254;138353;-62
2024/02/07 19:29:48;;;;;;;5.60;3.70;;;;;;;1.11;100.00;98050.69;436830;1255;139053;-59
2024/02/07 19:39:55;;;;;;;6.60;3.70;;;;;;;1.02;100.00;98067.15;448866;1258;139835;-60
2024/02/07 19:50:01;;;;;;;7.20;3.80;;;;;;;1.02;100.00;98077.86;437299;1259;139627;-60
2024/02/07 20:00:10;;;;;;;6.50;3.20;;;;;;;1.04;100.00;98086.37;435782;1258;140988;-60
2024/02/07 20:10:16;;;;;;;6.10;2.10;;;;;;;1.05;100.00;98098.04;437664;1259;139063;-63
2024/02/07 20:20:22;;;;;;;4.10;2.40;;;;;;;1.02;100.00;98103.36;437768;1262;139083;-64
2024/02/07 20:30:28;;;;;;;5.00;3.70;;;;;;;1.04;100.00;98104.46;438315;1260;139687;-60
2024/02/07 20:40:40;;;;;;;7.10;3.60;;;;;;;0.92;100.00;98102.95;436805;1262;140580;-59
2024/02/07 20:50:47;;;;;;;11.20;4.40;;;;;;;0.79;100.00;98112.71;437479;1259;139771;-62
2024/02/07 21:00:54;;;;;;;5.50;3.50;;;;;;;0.71;100.00;98126.02;441423;1260;140743;-62
2024/02/07 21:11:00;;;;;;;4.70;2.90;;;;;;;0.60;100.00;98136.69;436884;1260;139645;-52
2024/02/07 21:21:06;;;;;;;7.30;2.60;;;;;;;0.51;100.00;98141.02;436668;1261;139562;-53
2024/02/07 21:31:13;;;;;;;5.00;2.40;;;;;;;0.50;100.00;98153.31;438541;1260;140306;-52
2024/02/07 21:41:17;;;;;;;;;;;;;;;0.50;100.00;98159.16;437190;1262;139423;-59
2024/02/07 21:51:24;;;;;;;10.40;3.70;;;;;;;0.55;100.00;98173.40;437144;1261;125818;-59
2024/02/07 22:01:31;;;;;;;5.30;2.90;;;;;;;0.65;100.00;98168.46;437024;1262;140372;-49
2024/02/07 22:11:37;;;;;;;11.30;3.40;;;;;;;0.75;100.00;98169.25;438376;1262;139224;-50
2024/02/07 22:21:46;;;;;;;9.90;3.30;;;;;;;0.79;100.00;98176.30;438230;1262;140208;-53
2024/02/07 22:31:53;;;;;;;7.00;4.10;;;;;;;0.69;100.00;98185.38;442407;1261;139176;-55
2024/02/07 22:41:59;;;;;;;11.60;4.90;;;;;;;0.52;100.00;98193.70;437737;1262;140263;-47
2024/02/07 22:52:05;;;;;;;6.90;3.80;;;;;;;0.34;100.00;98200.20;438467;1262;139788;-50
2024/02/07 23:02:14;;;;;;;8.60;4.00;;;;;;;0.18;100.00;98209.15;437214;1257;140591;-59
2024/02/07 23:12:20;;;;;;;12.70;4.80;;;;;;;0.11;100.00;98217.02;437430;1261;140111;-60
2024/02/07 23:22:27;;;;;;;9.30;4.70;;;;;;;0.10;100.00;98226.34;437166;1260;139219;-62
2024/02/07 23:32:31;;;;;;;;;;;;;;;-0.02;100.00;98235.98;440182;1262;139124;-63
2024/02/07 23:42:39;;;;;;;4.90;3.10;;;;;;;-0.23;100.00;98249.05;437667;1262;126360;-64
2024/02/07 23:52:45;;;;;;;10.20;3.80;;;;;;;-0.44;100.00;98255.57;438585;1262;139759;-65
